createdAt,value
2023-04-25T00:01:10.443Z,23.87
2023-04-25T00:03:37.754Z,29.47
2023-04-25T00:06:04.776Z,25.70
2023-04-25T00:08:31.992Z,19.47
2023-04-25T00:11:00.224Z,29.83
2023-04-25T00:13:27.693Z,21.80
2023-04-25T00:15:54.597Z,27.20
2023-04-25T00:18:24.177Z,25.57
2023-04-25T00:20:51.275Z,30.50
2023-04-25T00:23:21.416Z,21.60
2023-04-25T00:25:51.242Z,28.67
2023-04-25T00:28:18.300Z,21.53
2023-04-25T00:30:45.451Z,26.10
2023-04-25T00:33:12.469Z,26.33
2023-04-25T00:35:39.707Z,23.97
2023-04-25T00:38:06.518Z,18.03
2023-04-25T00:40:33.573Z,22.70
2023-04-25T00:43:00.451Z,29.63
2023-04-25T00:45:31.214Z,20.13
2023-04-25T00:47:58.937Z,29.50
2023-04-25T00:50:26.656Z,23.90
2023-04-25T00:52:53.782Z,21.17
2023-04-25T00:55:21.119Z,26.23
2023-04-25T00:57:48.178Z,26.40
2023-04-25T01:00:16.040Z,23.37
2023-04-25T01:02:44.006Z,24.10
2023-04-25T01:05:11.453Z,26.33
2023-04-25T01:07:38.498Z,25.80
2023-04-25T01:10:07.380Z,23.10
2023-04-25T01:12:34.608Z,22.87
2023-04-25T01:15:02.503Z,23.70
2023-04-25T01:17:30.367Z,23.93
2023-04-25T01:19:57.414Z,25.23
2023-04-25T01:22:24.577Z,23.57
2023-04-25T01:24:52.142Z,22.90
2023-04-25T01:27:19.427Z,24.50
2023-04-25T01:29:47.152Z,16.10
2023-04-25T01:32:15.309Z,28.63
2023-04-25T01:34:42.674Z,18.73
2023-04-25T01:37:09.469Z,25.53
2023-04-25T01:39:37.065Z,21.07
2023-04-25T01:42:04.044Z,20.63
2023-04-25T01:44:30.998Z,25.87
2023-04-25T01:46:57.989Z,27.87
2023-04-25T01:49:26.497Z,30.73
2023-04-25T01:51:53.624Z,19.27
2023-04-25T01:54:20.682Z,22.33
2023-04-25T01:56:52.377Z,21.33
2023-04-25T01:59:21.086Z,21.30
2023-04-25T02:01:48.171Z,23.60
2023-04-25T02:04:15.476Z,22.03
2023-04-25T02:06:42.513Z,21.33
2023-04-25T02:09:09.946Z,21.77
2023-04-25T02:11:36.846Z,16.43
2023-04-25T02:14:03.880Z,18.47
2023-04-25T02:16:31.993Z,24.30
2023-04-25T02:19:00.344Z,16.57
2023-04-25T02:21:27.759Z,32.77
2023-04-25T02:23:55.103Z,23.83
2023-04-25T02:26:22.259Z,22.73
2023-04-25T02:28:49.434Z,22.27
2023-04-25T02:31:16.559Z,19.20
2023-04-25T02:33:43.978Z,15.50
2023-04-25T02:36:10.833Z,22.07
2023-04-25T02:38:37.737Z,23.63
2023-04-25T02:41:04.658Z,16.63
2023-04-25T02:43:31.987Z,24.40
2023-04-25T02:45:58.874Z,18.93
2023-04-25T02:48:26.011Z,17.57
2023-04-25T02:50:52.969Z,19.53
2023-04-25T02:53:20.324Z,17.60
2023-04-25T02:55:47.324Z,17.97
2023-04-25T02:58:14.277Z,14.77
2023-04-25T03:00:41.213Z,19.83
2023-04-25T03:03:11.127Z,14.80
2023-04-25T03:05:38.098Z,17.80
2023-04-25T03:08:05.178Z,15.60
2023-04-25T03:10:32.072Z,17.90
2023-04-25T03:12:59.165Z,18.27
2023-04-25T03:15:26.153Z,24.90
2023-04-25T03:17:56.295Z,12.37
2023-04-25T03:20:23.229Z,15.50
2023-04-25T03:22:50.050Z,18.57
2023-04-25T03:25:17.226Z,24.93
2023-04-25T03:27:44.035Z,22.67
2023-04-25T03:30:11.354Z,20.50
2023-04-25T03:32:38.300Z,16.77
2023-04-25T03:35:06.670Z,17.97
2023-04-25T03:37:34.136Z,16.27
2023-04-25T03:40:00.945Z,14.97
2023-04-25T03:42:27.922Z,17.83
2023-04-25T03:44:54.876Z,19.67
2023-04-25T03:47:24.531Z,17.77
2023-04-25T03:49:52.994Z,12.93
2023-04-25T03:52:19.894Z,15.60
2023-04-25T03:54:47.052Z,16.00
2023-04-25T03:57:13.978Z,18.53
2023-04-25T03:59:41.084Z,20.93
2023-04-25T04:02:08.075Z,17.20
2023-04-25T04:04:35.068Z,11.13
2023-04-25T04:07:02.152Z,16.13
2023-04-25T04:09:29.147Z,13.20
2023-04-25T04:11:55.980Z,12.80
2023-04-25T04:14:23.148Z,21.23
2023-04-25T04:16:53.778Z,12.63
2023-04-25T04:19:20.594Z,18.10
2023-04-25T04:21:47.678Z,14.10
2023-04-25T04:24:14.874Z,17.80
2023-04-25T04:26:41.837Z,15.83
2023-04-25T04:29:09.942Z,19.77
2023-04-25T04:31:37.184Z,15.70
2023-04-25T04:34:04.760Z,13.10
2023-04-25T04:36:32.274Z,15.20
2023-04-25T04:38:59.150Z,14.23
2023-04-25T04:41:26.371Z,15.60
2023-04-25T04:43:54.505Z,15.77
2023-04-25T04:46:21.552Z,20.40
2023-04-25T04:48:48.823Z,16.20
2023-04-25T04:51:15.784Z,13.50
2023-04-25T04:53:42.747Z,14.23
2023-04-25T04:56:11.060Z,12.53
2023-04-25T04:58:38.066Z,14.10
2023-04-25T05:01:05.316Z,19.17
2023-04-25T05:03:32.468Z,13.10
2023-04-25T05:05:59.410Z,15.83
2023-04-25T05:08:26.152Z,15.80
2023-04-25T05:10:53.244Z,11.67
2023-04-25T05:13:20.104Z,11.63
2023-04-25T05:15:47.139Z,10.27
2023-04-25T05:18:16.818Z,13.60
2023-04-25T05:20:43.879Z,14.10
2023-04-25T05:23:10.788Z,17.27
2023-04-25T05:25:37.933Z,14.27
2023-04-25T05:28:05.013Z,14.30
2023-04-25T05:30:32.129Z,13.23
2023-04-25T05:32:58.963Z,19.63
2023-04-25T05:35:26.188Z,13.87
2023-04-25T05:37:53.110Z,12.67
2023-04-25T05:40:19.999Z,12.23
2023-04-25T05:42:47.362Z,18.13
2023-04-25T05:45:14.608Z,15.00
2023-04-25T05:47:41.897Z,12.50
2023-04-25T05:50:09.886Z,11.03
2023-04-25T05:52:36.891Z,12.50
2023-04-25T05:55:04.122Z,12.97
2023-04-25T05:57:31.154Z,13.40
2023-04-25T05:59:58.223Z,13.13
2023-04-25T06:02:25.311Z,12.43
2023-04-25T06:04:52.966Z,17.23
2023-04-25T06:07:21.453Z,11.83
2023-04-25T06:09:49.600Z,13.07
2023-04-25T06:12:16.608Z,15.23
2023-04-25T06:14:43.853Z,17.20
2023-04-25T06:17:10.782Z,12.63
2023-04-25T06:19:37.906Z,20.20
2023-04-25T06:22:04.804Z,13.83
2023-04-25T06:24:31.750Z,16.00
2023-04-25T06:26:58.618Z,12.93
2023-04-25T06:29:30.405Z,13.50
2023-04-25T06:31:58.293Z,12.43
2023-04-25T06:34:25.415Z,10.57
2023-04-25T06:36:52.317Z,10.77
2023-04-25T06:39:21.370Z,12.03
2023-04-25T06:41:48.741Z,7.93
2023-04-25T06:44:19.622Z,11.30
2023-04-25T06:46:46.546Z,12.73
2023-04-25T06:49:16.214Z,10.37
2023-04-25T06:51:43.663Z,11.27
2023-04-25T06:54:11.035Z,8.50
2023-04-25T06:56:38.213Z,13.50
2023-04-25T06:59:05.235Z,11.07
2023-04-25T07:01:32.122Z,10.80
2023-04-25T07:03:59.414Z,11.83
2023-04-25T07:06:28.316Z,15.80
2023-04-25T07:08:55.978Z,11.20
2023-04-25T07:11:22.994Z,13.97
2023-04-25T07:13:49.941Z,12.80
2023-04-25T07:16:17.947Z,13.67
2023-04-25T07:18:44.902Z,12.33
2023-04-25T07:21:11.743Z,11.37
2023-04-25T07:23:41.841Z,12.77
2023-04-25T07:26:09.240Z,8.60
2023-04-25T07:28:36.473Z,9.63
2023-04-25T07:31:04.094Z,10.00
2023-04-25T07:33:31.086Z,10.33
2023-04-25T07:36:01.080Z,8.80
2023-04-25T07:38:27.970Z,9.67
2023-04-25T07:40:54.944Z,10.83
2023-04-25T07:43:21.999Z,10.17
2023-04-25T07:45:49.535Z,8.83
2023-04-25T07:48:20.181Z,12.83
2023-04-25T07:50:46.900Z,12.70
2023-04-25T07:53:14.338Z,10.73
2023-04-25T07:55:41.676Z,8.47
2023-04-25T07:58:09.490Z,9.53
2023-04-25T08:00:37.126Z,11.77
2023-04-25T08:03:04.300Z,10.17
2023-04-25T08:05:31.379Z,10.33
2023-04-25T08:07:58.452Z,11.67
2023-04-25T08:10:25.392Z,8.90
2023-04-25T08:12:52.363Z,13.60
2023-04-25T08:15:19.487Z,10.40
2023-04-25T08:17:46.870Z,11.67
2023-04-25T08:20:16.523Z,9.50
2023-04-25T08:22:44.130Z,9.73
2023-04-25T08:25:10.978Z,11.87
2023-04-25T08:27:38.022Z,14.83
2023-04-25T08:30:05.437Z,7.90
2023-04-25T08:32:32.331Z,10.80
2023-04-25T08:34:59.149Z,8.67
2023-04-25T08:37:26.956Z,9.50
2023-04-25T08:39:54.522Z,5.57
2023-04-25T08:43:05.410Z,5.40
2023-04-25T08:45:34.031Z,5.83
2023-04-25T08:48:02.589Z,5.97
2023-04-25T08:50:32.902Z,6.03
2023-04-25T08:53:05.516Z,9.07
2023-04-25T08:55:33.135Z,7.00
2023-04-25T08:58:02.185Z,5.30
2023-04-25T09:00:29.337Z,6.00
2023-04-25T09:02:58.833Z,7.73
2023-04-25T09:05:30.060Z,13.73
2023-04-25T09:07:57.743Z,8.53
2023-04-25T09:10:24.788Z,9.00
2023-04-25T09:13:10.336Z,9.30
2023-04-25T09:15:52.789Z,11.33
2023-04-25T09:18:37.072Z,8.73
2023-04-25T09:21:14.305Z,8.00
2023-04-25T09:23:45.987Z,8.07
2023-04-25T09:26:18.185Z,12.40
2023-04-25T09:28:45.256Z,15.27
2023-04-25T09:31:14.864Z,11.83
2023-04-25T09:33:42.514Z,8.93
2023-04-25T09:36:14.526Z,8.77
2023-04-25T09:38:46.632Z,14.43
2023-04-25T09:41:14.345Z,11.70
2023-04-25T09:43:41.189Z,11.53
2023-04-25T09:46:15.053Z,6.83
2023-04-25T09:48:49.095Z,6.27
2023-04-25T09:51:16.137Z,5.30
2023-04-25T09:53:45.551Z,5.10
2023-04-25T09:56:14.381Z,6.87
2023-04-25T09:58:42.418Z,10.27
2023-04-25T10:01:12.399Z,6.90
2023-04-25T10:03:43.972Z,8.03
2023-04-25T10:06:20.722Z,5.83
2023-04-25T10:08:51.275Z,8.63
2023-04-25T10:11:19.032Z,9.63
2023-04-25T10:13:47.516Z,9.43
2023-04-25T10:16:14.906Z,6.03
2023-04-25T10:18:46.920Z,7.50
2023-04-25T10:21:15.612Z,7.37
2023-04-25T10:23:43.439Z,8.43
2023-04-25T10:26:14.717Z,9.10
2023-04-25T10:29:00.628Z,9.37
2023-04-25T10:31:27.901Z,8.27
2023-04-25T10:33:55.144Z,6.67
2023-04-25T10:36:23.976Z,5.57
2023-04-25T10:38:52.455Z,8.07
2023-04-25T10:41:21.705Z,7.17
2023-04-25T10:43:50.393Z,6.37
2023-04-25T10:46:27.636Z,7.53
2023-04-25T10:48:59.406Z,9.07
2023-04-25T10:51:50.894Z,5.90
2023-04-25T10:54:21.438Z,5.77
2023-04-25T10:56:52.953Z,9.03
2023-04-25T10:59:21.760Z,5.30
2023-04-25T11:01:56.179Z,4.97
2023-04-25T11:04:25.510Z,6.03
2023-04-25T11:07:11.305Z,5.80
2023-04-25T11:09:42.151Z,5.80
2023-04-25T11:12:10.954Z,7.00
2023-04-25T11:17:08.135Z,8.60
2023-04-25T11:19:35.236Z,9.60
2023-04-25T11:22:04.345Z,7.60
2023-04-25T11:24:33.297Z,8.80
2023-04-25T11:27:01.056Z,9.40
2023-04-25T11:29:31.399Z,6.10
2023-04-25T11:32:02.509Z,4.07
2023-04-25T11:34:32.066Z,3.97
2023-04-25T11:36:59.152Z,4.80
2023-04-25T11:39:27.380Z,5.83
2023-04-25T11:41:55.203Z,7.77
2023-04-25T11:44:23.082Z,7.97
2023-04-25T11:46:50.531Z,3.20
2023-04-25T11:49:19.713Z,4.33
2023-04-25T11:51:49.782Z,2.87
2023-04-25T11:54:17.343Z,5.30
2023-04-25T11:56:46.446Z,10.30
2023-04-25T11:59:14.559Z,13.07
2023-04-25T12:01:50.820Z,4.73
2023-04-25T12:04:26.819Z,5.53
2023-04-25T12:06:56.564Z,6.93
2023-04-25T12:09:35.300Z,5.87
2023-04-25T12:12:07.081Z,5.47
2023-04-25T12:14:37.079Z,8.63
2023-04-25T12:17:11.488Z,12.70
2023-04-25T12:19:42.012Z,8.17
2023-04-25T12:22:45.996Z,5.37
2023-04-25T12:25:14.381Z,6.43
2023-04-25T12:27:45.434Z,12.13
2023-04-25T12:30:15.397Z,12.37
2023-04-25T12:32:45.084Z,4.93
2023-04-25T12:35:12.527Z,3.90
2023-04-25T12:37:39.676Z,6.10
2023-04-25T12:40:07.826Z,5.37
2023-04-25T12:42:34.670Z,3.47
2023-04-25T12:45:01.758Z,7.67
2023-04-25T12:47:31.832Z,7.50
2023-04-25T12:49:59.856Z,7.70
2023-04-25T12:52:27.174Z,8.30
2023-04-25T12:54:59.619Z,7.00
2023-04-25T12:57:29.825Z,6.47
2023-04-25T12:59:56.919Z,6.13
2023-04-25T13:02:23.887Z,5.93
2023-04-25T13:04:55.155Z,4.60
2023-04-25T13:07:22.153Z,5.80
2023-04-25T13:09:49.063Z,4.00
2023-04-25T13:12:16.826Z,5.93
2023-04-25T13:14:43.833Z,7.60
2023-04-25T13:17:11.589Z,11.20
2023-04-25T13:19:40.066Z,10.40
2023-04-25T13:22:07.568Z,11.63
2023-04-25T13:24:37.342Z,8.70
2023-04-25T13:27:04.617Z,5.60
2023-04-25T13:29:31.481Z,4.83
2023-04-25T13:31:58.672Z,4.53
2023-04-25T13:34:26.296Z,7.67
2023-04-25T13:36:53.623Z,5.67
2023-04-25T13:39:21.185Z,9.20
2023-04-25T13:41:48.492Z,7.00
2023-04-25T13:44:16.130Z,6.30
2023-04-25T13:46:47.063Z,7.20
2023-04-25T13:49:14.611Z,3.43
2023-04-25T13:51:45.186Z,9.23
2023-04-25T13:54:14.187Z,8.63
2023-04-25T13:56:43.561Z,7.37
2023-04-25T13:59:10.834Z,6.53
2023-04-25T14:01:37.948Z,8.87
2023-04-25T14:04:06.640Z,11.70
2023-04-25T14:06:34.216Z,6.20
2023-04-25T14:09:02.422Z,9.57
2023-04-25T14:11:29.610Z,5.43
2023-04-25T14:13:56.556Z,10.00
2023-04-25T14:16:24.599Z,5.43
2023-04-25T14:18:51.751Z,10.87
2023-04-25T14:21:18.833Z,6.37
2023-04-25T14:23:46.638Z,8.90
2023-04-25T14:26:14.121Z,10.10
2023-04-25T14:28:41.322Z,7.53
2023-04-25T14:31:08.997Z,4.60
2023-04-25T14:33:36.639Z,5.33
2023-04-25T14:36:03.872Z,6.13
2023-04-25T14:38:30.871Z,11.77
2023-04-25T14:41:01.146Z,7.90
2023-04-25T14:43:28.036Z,10.37
2023-04-25T14:45:56.862Z,8.23
2023-04-25T14:48:25.453Z,10.70
2023-04-25T14:50:52.650Z,11.37
2023-04-25T14:53:25.342Z,10.47
2023-04-25T14:55:52.275Z,13.80
2023-04-25T14:58:19.602Z,14.17
2023-04-25T15:00:47.222Z,8.13
2023-04-25T15:03:18.057Z,9.93
2023-04-25T15:05:45.634Z,10.07
2023-04-25T15:08:12.490Z,9.67
2023-04-25T15:10:39.484Z,8.27
2023-04-25T15:13:06.774Z,9.63
2023-04-25T15:15:34.057Z,7.93
2023-04-25T15:18:01.547Z,7.37
2023-04-25T15:20:28.921Z,7.60
2023-04-25T15:22:56.462Z,9.07
2023-04-25T15:25:23.588Z,11.07
2023-04-25T15:27:53.989Z,7.87
2023-04-25T15:30:21.258Z,7.47
2023-04-25T15:32:48.770Z,7.43
2023-04-25T15:35:16.622Z,9.57
2023-04-25T15:37:43.939Z,7.83
2023-04-25T15:40:17.775Z,7.70
2023-04-25T15:42:54.057Z,6.40
2023-04-25T15:45:26.007Z,8.07
2023-04-25T15:47:55.496Z,7.03
2023-04-25T15:50:23.050Z,6.93
2023-04-25T15:52:51.649Z,11.47
2023-04-25T15:55:26.930Z,7.40
2023-04-25T15:57:54.452Z,8.17
2023-04-25T16:00:22.645Z,9.93
2023-04-25T16:02:50.066Z,4.67
2023-04-25T16:05:20.835Z,10.70
2023-04-25T16:07:48.736Z,10.87
2023-04-25T16:10:21.777Z,7.97
2023-04-25T16:12:50.716Z,6.57
2023-04-25T16:15:17.971Z,5.20
2023-04-25T16:17:46.208Z,6.57
2023-04-25T16:20:14.026Z,5.37
2023-04-25T16:22:42.445Z,6.50
2023-04-25T16:25:13.400Z,9.90
2023-04-25T16:27:40.688Z,10.00
2023-04-25T16:30:10.255Z,6.10
2023-04-25T16:32:39.210Z,8.33
2023-04-25T16:35:06.722Z,7.93
2023-04-25T16:37:33.987Z,7.90
2023-04-25T16:40:01.326Z,8.10
2023-04-25T16:42:28.414Z,8.60
2023-04-25T16:44:55.260Z,10.07
2023-04-25T16:47:22.305Z,6.47
2023-04-25T16:49:49.509Z,7.07
2023-04-25T16:52:16.912Z,6.13
2023-04-25T16:54:43.841Z,4.33
2023-04-25T16:57:11.820Z,7.23
2023-04-25T16:59:39.463Z,5.37
2023-04-25T17:02:10.949Z,5.53
2023-04-25T17:04:38.178Z,4.17
2023-04-25T17:07:05.742Z,4.07
2023-04-25T17:09:35.555Z,3.37
2023-04-25T17:12:03.997Z,6.60
2023-04-25T17:14:32.528Z,9.17
2023-04-25T17:16:59.306Z,10.33
2023-04-25T17:19:26.346Z,6.37
2023-04-25T17:21:53.446Z,8.47
2023-04-25T17:24:22.348Z,9.10
2023-04-25T17:26:49.472Z,12.37
2023-04-25T17:29:16.385Z,9.73
2023-04-25T17:31:44.416Z,13.30
2023-04-25T17:34:16.728Z,6.70
2023-04-25T17:36:48.038Z,9.67
2023-04-25T17:39:17.735Z,8.50
2023-04-25T17:41:45.032Z,11.17
2023-04-25T17:44:12.274Z,8.87
2023-04-25T17:46:39.310Z,10.83
2023-04-25T17:49:06.383Z,12.57
2023-04-25T17:51:33.468Z,6.87
2023-04-25T17:54:00.486Z,10.83
2023-04-25T17:56:27.880Z,12.70
2023-04-25T17:58:55.201Z,10.10
2023-04-25T18:01:23.027Z,6.97
2023-04-25T18:03:53.115Z,7.43
2023-04-25T18:06:20.015Z,6.73
2023-04-25T18:08:47.505Z,4.50
2023-04-25T18:11:17.286Z,7.80
2023-04-25T18:13:44.372Z,6.57
2023-04-25T18:16:12.061Z,8.07
2023-04-25T18:18:39.662Z,10.80
2023-04-25T18:21:09.780Z,8.63
2023-04-25T18:23:37.986Z,9.07
2023-04-25T18:26:05.812Z,8.10
2023-04-25T18:28:34.564Z,7.57
2023-04-25T18:31:01.568Z,7.37
2023-04-25T18:33:28.410Z,10.97
2023-04-25T18:35:59.144Z,10.70
2023-04-25T18:41:06.207Z,7.80
2023-04-25T18:43:37.450Z,6.57
2023-04-25T18:46:04.885Z,7.10
2023-04-25T18:48:32.052Z,7.63
2023-04-25T18:50:59.092Z,7.80
2023-04-25T18:53:26.056Z,7.20
2023-04-25T18:55:53.521Z,11.90
2023-04-25T18:58:20.535Z,12.83
2023-04-25T19:00:48.770Z,6.93
2023-04-25T19:03:15.910Z,7.83
2023-04-25T19:05:43.105Z,6.37
2023-04-25T19:08:09.991Z,7.90
2023-04-25T19:10:37.713Z,7.93
2023-04-25T19:13:05.121Z,5.97
2023-04-25T19:15:33.556Z,7.20
2023-04-25T19:18:01.315Z,9.27
2023-04-25T19:20:28.502Z,8.60
2023-04-25T19:22:55.634Z,9.20
2023-04-25T19:25:26.501Z,9.80
2023-04-25T19:27:53.551Z,8.97
2023-04-25T19:30:20.862Z,7.03
2023-04-25T19:32:47.909Z,9.60
2023-04-25T19:35:15.233Z,9.53
2023-04-25T19:37:46.796Z,8.27
2023-04-25T19:40:16.108Z,11.13
2023-04-25T19:42:44.105Z,9.07
2023-04-25T19:45:11.896Z,9.30
2023-04-25T19:47:42.658Z,8.80
2023-04-25T19:50:10.917Z,8.23
2023-04-25T19:52:39.044Z,12.63
2023-04-25T19:55:06.823Z,10.27
2023-04-25T19:57:34.617Z,13.90
2023-04-25T20:00:06.344Z,12.23
2023-04-25T20:02:33.436Z,6.93
2023-04-25T20:05:00.608Z,10.80
2023-04-25T20:07:27.581Z,7.80
2023-04-25T20:09:57.868Z,12.03
2023-04-25T20:12:24.924Z,11.77
2023-04-25T20:14:51.993Z,13.57
2023-04-25T20:17:21.650Z,13.07
2023-04-25T20:19:48.646Z,11.70
2023-04-25T20:22:15.445Z,11.60
2023-04-25T20:24:42.579Z,6.50
2023-04-25T20:27:09.504Z,7.77
2023-04-25T20:29:37.265Z,15.33
2023-04-25T20:32:04.522Z,11.90
2023-04-25T20:34:31.826Z,12.03
2023-04-25T20:36:59.418Z,9.50
2023-04-25T20:39:27.110Z,12.80
2023-04-25T20:41:54.949Z,11.03
2023-04-25T20:44:23.627Z,10.33
2023-04-25T20:46:50.824Z,7.37
2023-04-25T20:49:17.813Z,7.10
2023-04-25T20:51:44.812Z,7.80
2023-04-25T20:54:13.477Z,8.30
2023-04-25T20:56:40.535Z,3.93
2023-04-25T20:59:09.790Z,7.30
2023-04-25T21:01:36.990Z,8.73
2023-04-25T21:04:06.557Z,9.40
2023-04-25T21:06:34.886Z,9.63
2023-04-25T21:09:01.955Z,9.60
2023-04-25T21:11:28.796Z,10.20
2023-04-25T21:13:55.899Z,7.20
2023-04-25T21:16:22.970Z,8.00
2023-04-25T21:18:50.285Z,10.53
2023-04-25T21:21:17.667Z,8.83
2023-04-25T21:23:44.598Z,11.67
2023-04-25T21:26:11.761Z,11.57
2023-04-25T21:28:38.797Z,6.93
2023-04-25T21:31:05.871Z,8.97
2023-04-25T21:33:32.779Z,7.97
2023-04-25T21:35:59.652Z,10.27
2023-04-25T21:38:27.013Z,7.10
2023-04-25T21:40:54.008Z,7.27
2023-04-25T21:43:21.833Z,6.90
2023-04-25T21:46:11.478Z,7.47
2023-04-25T21:48:35.620Z,7.07
2023-04-25T21:51:02.568Z,5.87
2023-04-25T21:53:29.645Z,8.90
2023-04-25T21:55:59.364Z,5.67
2023-04-25T21:58:26.260Z,5.90
2023-04-25T22:00:53.300Z,5.97
2023-04-25T22:03:20.740Z,10.23
2023-04-25T22:05:50.198Z,7.17
2023-04-25T22:08:17.573Z,6.93
2023-04-25T22:10:44.577Z,10.37
2023-04-25T22:13:11.622Z,10.37
2023-04-25T22:15:41.066Z,8.20
2023-04-25T22:18:08.294Z,9.40
2023-04-25T22:20:35.485Z,12.00
2023-04-25T22:23:02.344Z,7.93
2023-04-25T22:25:30.062Z,8.40
2023-04-25T22:28:00.314Z,9.70
2023-04-25T22:30:30.994Z,8.97
2023-04-25T22:32:58.208Z,11.87
2023-04-25T22:35:25.090Z,10.10
2023-04-25T22:37:51.893Z,13.93
2023-04-25T22:40:19.199Z,6.23
2023-04-25T22:42:46.324Z,6.57
2023-04-25T22:45:13.605Z,7.33
2023-04-25T22:47:40.501Z,7.57
2023-04-25T22:50:12.729Z,14.80
2023-04-25T22:52:39.802Z,14.37
2023-04-25T22:55:07.610Z,7.30
2023-04-25T22:57:38.764Z,7.57
2023-04-25T23:00:11.924Z,7.37
2023-04-25T23:02:38.958Z,11.07
2023-04-25T23:05:07.358Z,10.77
2023-04-25T23:07:34.459Z,8.93
2023-04-25T23:10:01.486Z,8.70
2023-04-25T23:12:28.485Z,7.67
2023-04-25T23:14:55.363Z,10.27
2023-04-25T23:17:23.357Z,6.37
2023-04-25T23:19:50.260Z,7.23
2023-04-25T23:22:17.626Z,9.47
2023-04-25T23:24:45.057Z,7.63
2023-04-25T23:27:12.129Z,7.43
2023-04-25T23:29:40.844Z,8.07
2023-04-25T23:32:09.096Z,6.17
2023-04-25T23:34:37.913Z,10.97
2023-04-25T23:37:04.923Z,9.53
2023-04-25T23:39:31.848Z,4.70
2023-04-25T23:41:58.774Z,7.00
2023-04-25T23:44:26.134Z,8.80
2023-04-25T23:46:53.121Z,9.73
2023-04-25T23:49:20.108Z,5.70
2023-04-25T23:51:49.907Z,9.77
2023-04-25T23:54:16.745Z,5.77
2023-04-25T23:56:43.761Z,11.60
2023-04-25T23:59:10.838Z,11.53
